Time;durP1;ratioP1;P1;durP2;ratioP2;P2;SDS_P1;SDS_P2;PMS_P1;PMS_P2;Temp;Humidity;BMP_temperature;BMP_pressure;BME280_temperature;BME280_humidity;BME280_pressure;Samples;Min_cycle;Max_cycle;Signal;HPM_P1;HPM_P2
2022/05/14 00:01:21;;;;;;;21.80;7.95;;;;;;;;;;5050393;28;20489;-61
2022/05/14 00:03:47;;;;;;;15.02;7.85;;;;;;;;;;5044803;28;20041;-62
2022/05/14 00:06:25;;;;;;;17.05;8.00;;;;;;;;;;5044943;28;20065;-60
2022/05/14 00:08:52;;;;;;;16.65;8.02;;;;;;;;;;5049767;28;20131;-62
2022/05/14 00:14:04;;;;;;;16.73;8.57;;;;;;;;;;5051664;28;20067;-63
2022/05/14 00:16:32;;;;;;;20.95;7.63;;;;;;;;;;5039292;28;20053;-62
2022/05/14 00:19:01;;;;;;;18.30;9.13;;;;;;;;;;5041880;28;20116;-60
2022/05/14 00:21:27;;;;;;;21.58;8.40;;;;;;;;;;5044471;28;20045;-62
2022/05/14 00:23:53;;;;;;;16.20;7.88;;;;;;;;;;5050796;28;20044;-63
2022/05/14 00:26:19;;;;;;;22.85;8.50;;;;;;;;;;5047789;28;20145;-62
2022/05/14 00:28:46;;;;;;;12.60;7.15;;;;;;;;;;5038136;28;20045;-61
2022/05/14 00:31:12;;;;;;;23.95;7.80;;;;;;;;;;5040616;28;20045;-63
2022/05/14 00:33:38;;;;;;;20.63;8.45;;;;;;;;;;5039327;28;20580;-62
2022/05/14 00:36:04;;;;;;;16.20;7.80;;;;;;;;;;5049657;28;20052;-62
2022/05/14 00:38:30;;;;;;;14.60;7.40;;;;;;;;;;5039789;28;20047;-62
2022/05/14 00:40:58;;;;;;;16.63;7.70;;;;;;;;;;5045507;28;20041;-63
2022/05/14 00:43:26;;;;;;;16.30;7.57;;;;;;;;;;5044982;28;20052;-63
2022/05/14 00:46:05;;;;;;;11.65;7.22;;;;;;;;;;5042478;28;20381;-62
2022/05/14 00:48:37;;;;;;;21.58;7.55;;;;;;;;;;5043840;28;20044;-63
2022/05/14 00:51:03;;;;;;;14.85;7.30;;;;;;;;;;5047164;28;20060;-64
2022/05/14 00:53:38;;;;;;;19.25;7.93;;;;;;;;;;5044504;28;20041;-61
2022/05/14 00:56:08;;;;;;;20.58;7.15;;;;;;;;;;5050652;28;20057;-61
2022/05/14 00:59:03;;;;;;;13.00;7.20;;;;;;;;;;5048006;28;20127;-62
2022/05/14 01:01:29;;;;;;;17.73;6.60;;;;;;;;;;5048967;28;20045;-63
2022/05/14 01:03:56;;;;;;;13.88;6.65;;;;;;;;;;5045311;28;20072;-62
2022/05/14 01:06:24;;;;;;;14.20;7.07;;;;;;;;;;5021041;28;20079;-60
2022/05/14 01:08:50;;;;;;;19.50;7.70;;;;;;;;;;5043216;28;20052;-62
2022/05/14 01:11:17;;;;;;;15.07;7.40;;;;;;;;;;5050042;28;20048;-62
2022/05/14 01:13:43;;;;;;;16.55;7.50;;;;;;;;;;5050747;28;20548;-62
2022/05/14 01:16:10;;;;;;;12.88;7.35;;;;;;;;;;5042036;28;20379;-64
2022/05/14 01:18:37;;;;;;;9.98;6.88;;;;;;;;;;5037815;28;20122;-67
2022/05/14 01:21:11;;;;;;;17.65;7.70;;;;;;;;;;5035412;28;20053;-60
2022/05/14 01:27:06;;;;;;;16.42;8.13;;;;;;;;;;5049058;28;20056;-63
2022/05/14 01:29:34;;;;;;;17.67;7.90;;;;;;;;;;5044345;28;20033;-60
2022/05/14 01:32:00;;;;;;;15.30;7.82;;;;;;;;;;5036619;28;20045;-61
2022/05/14 01:34:32;;;;;;;12.27;7.95;;;;;;;;;;5029079;28;20045;-62
2022/05/14 01:36:59;;;;;;;19.25;8.30;;;;;;;;;;5034224;28;20061;-60
2022/05/14 01:39:25;;;;;;;22.23;8.70;;;;;;;;;;5042372;28;20053;-62
2022/05/14 01:41:51;;;;;;;13.63;8.10;;;;;;;;;;5035835;28;20060;-62
2022/05/14 01:44:18;;;;;;;22.67;8.38;;;;;;;;;;5039317;28;20045;-62
2022/05/14 01:46:44;;;;;;;19.63;7.78;;;;;;;;;;5031747;28;20045;-62
2022/05/14 01:49:11;;;;;;;16.73;8.15;;;;;;;;;;5032165;28;20095;-62
2022/05/14 01:51:38;;;;;;;16.65;8.43;;;;;;;;;;5027537;28;20053;-61
2022/05/14 01:54:04;;;;;;;19.42;9.27;;;;;;;;;;5044020;28;20081;-62
2022/05/14 01:56:30;;;;;;;16.67;9.13;;;;;;;;;;5037093;28;20037;-61
2022/05/14 01:58:56;;;;;;;17.77;9.23;;;;;;;;;;5046544;28;20045;-61
2022/05/14 02:01:29;;;;;;;15.50;8.30;;;;;;;;;;5040137;28;20454;-60
2022/05/14 02:04:00;;;;;;;17.42;8.95;;;;;;;;;;5042687;28;20045;-60
2022/05/14 02:06:28;;;;;;;16.52;8.73;;;;;;;;;;5048144;28;20079;-60
2022/05/14 02:08:54;;;;;;;30.33;9.50;;;;;;;;;;5045325;28;20051;-60
2022/05/14 02:11:21;;;;;;;18.73;7.70;;;;;;;;;;5050551;28;20132;-62
2022/05/14 02:13:49;;;;;;;17.38;8.05;;;;;;;;;;5048382;28;20057;-61
2022/05/14 02:16:15;;;;;;;13.57;7.30;;;;;;;;;;5047767;28;20083;-61
2022/05/14 02:18:42;;;;;;;14.55;7.45;;;;;;;;;;5045408;28;20045;-62
2022/05/14 02:21:08;;;;;;;19.88;7.00;;;;;;;;;;5046566;28;20778;-63
2022/05/14 02:23:38;;;;;;;20.08;7.63;;;;;;;;;;5048805;28;20060;-61
2022/05/14 02:26:06;;;;;;;14.80;6.60;;;;;;;;;;5050568;28;20499;-62
2022/05/14 02:28:33;;;;;;;17.42;6.95;;;;;;;;;;5049436;28;20041;-60
2022/05/14 02:30:59;;;;;;;13.40;6.50;;;;;;;;;;5038611;28;20191;-59
2022/05/14 02:33:26;;;;;;;11.23;6.70;;;;;;;;;;5036769;28;20048;-60
2022/05/14 02:35:52;;;;;;;15.23;6.50;;;;;;;;;;5038259;28;20091;-60
2022/05/14 02:38:18;;;;;;;16.40;7.03;;;;;;;;;;5044946;28;20064;-62
2022/05/14 02:40:44;;;;;;;12.75;6.00;;;;;;;;;;5043562;28;20403;-62
2022/05/14 02:43:10;;;;;;;12.07;6.32;;;;;;;;;;5039867;28;20045;-61
2022/05/14 02:45:37;;;;;;;12.27;6.30;;;;;;;;;;5048425;28;20045;-61
2022/05/14 02:48:03;;;;;;;15.60;6.53;;;;;;;;;;5042282;28;20049;-61
2022/05/14 02:50:30;;;;;;;13.20;5.72;;;;;;;;;;5046011;28;20041;-60
2022/05/14 02:52:56;;;;;;;13.88;6.45;;;;;;;;;;5042984;28;20045;-63
2022/05/14 02:55:22;;;;;;;12.45;6.03;;;;;;;;;;5051370;28;20524;-62
2022/05/14 02:57:48;;;;;;;14.50;6.28;;;;;;;;;;5042216;28;20473;-61
2022/05/14 03:00:17;;;;;;;15.70;6.03;;;;;;;;;;5030876;28;20051;-61
2022/05/14 03:02:43;;;;;;;20.13;6.90;;;;;;;;;;5046085;28;20334;-61
2022/05/14 03:05:10;;;;;;;16.38;7.20;;;;;;;;;;5045482;28;20041;-61
2022/05/14 03:07:36;;;;;;;16.70;7.22;;;;;;;;;;5045365;28;20120;-61
2022/05/14 03:10:03;;;;;;;18.98;7.25;;;;;;;;;;5045382;28;20140;-60
2022/05/14 03:12:29;;;;;;;19.55;7.55;;;;;;;;;;5050094;28;20045;-61
2022/05/14 03:14:55;;;;;;;23.77;7.65;;;;;;;;;;5042453;28;20382;-64
2022/05/14 03:17:21;;;;;;;18.65;8.43;;;;;;;;;;5037814;28;20041;-59
2022/05/14 03:19:49;;;;;;;18.85;8.85;;;;;;;;;;5031727;28;20098;-61
2022/05/14 03:22:15;;;;;;;14.32;7.50;;;;;;;;;;5042083;28;20090;-62
2022/05/14 03:24:41;;;;;;;22.38;8.52;;;;;;;;;;5048248;28;20095;-59
2022/05/14 03:27:07;;;;;;;11.75;7.28;;;;;;;;;;5036106;28;20044;-59
2022/05/14 03:29:34;;;;;;;16.13;7.32;;;;;;;;;;5044570;28;20183;-63
2022/05/14 03:32:01;;;;;;;13.05;7.05;;;;;;;;;;5036547;28;20040;-61
2022/05/14 03:34:27;;;;;;;14.95;7.03;;;;;;;;;;5048059;28;20110;-62
2022/05/14 03:36:53;;;;;;;15.38;7.28;;;;;;;;;;5046894;28;20057;-61
2022/05/14 03:39:19;;;;;;;15.05;7.47;;;;;;;;;;5044747;28;20041;-61
2022/05/14 03:41:46;;;;;;;23.00;7.20;;;;;;;;;;5043660;28;20044;-60
2022/05/14 03:44:12;;;;;;;15.63;6.90;;;;;;;;;;5046668;28;20045;-61
2022/05/14 03:46:38;;;;;;;16.27;6.72;;;;;;;;;;5045935;28;20055;-61
2022/05/14 03:49:04;;;;;;;13.15;6.90;;;;;;;;;;5045145;28;20422;-59
2022/05/14 03:51:31;;;;;;;17.33;6.72;;;;;;;;;;5027650;28;20049;-60
2022/05/14 03:53:58;;;;;;;17.48;6.82;;;;;;;;;;5041325;28;20144;-61
2022/05/14 03:56:24;;;;;;;17.15;6.60;;;;;;;;;;5038351;28;20049;-62
2022/05/14 03:58:50;;;;;;;12.43;6.70;;;;;;;;;;5043306;28;20114;-63
2022/05/14 04:01:16;;;;;;;14.68;6.45;;;;;;;;;;5031145;28;20384;-63
2022/05/14 04:03:42;;;;;;;14.38;7.13;;;;;;;;;;5048012;28;20203;-61
2022/05/14 04:06:08;;;;;;;12.27;6.97;;;;;;;;;;5047224;28;20168;-61
2022/05/14 04:08:34;;;;;;;12.27;6.53;;;;;;;;;;5040040;28;20052;-65
2022/05/14 04:11:01;;;;;;;12.95;7.95;;;;;;;;;;5046858;28;20595;-63
2022/05/14 04:13:27;;;;;;;12.85;6.63;;;;;;;;;;5047643;28;20215;-61
2022/05/14 04:15:52;;;;;;;16.05;7.63;;;;;;;;;;5045892;28;20063;-61
2022/05/14 04:18:24;;;;;;;14.82;6.70;;;;;;;;;;5037108;28;20120;-63
2022/05/14 04:21:00;;;;;;;14.90;6.80;;;;;;;;;;5042703;28;20056;-62
2022/05/14 04:23:28;;;;;;;17.15;7.20;;;;;;;;;;5044235;28;20045;-61
2022/05/14 04:25:55;;;;;;;18.35;7.18;;;;;;;;;;5038430;28;20041;-61
2022/05/14 04:28:22;;;;;;;13.48;6.68;;;;;;;;;;5053755;28;20041;-61
2022/05/14 04:30:48;;;;;;;18.10;6.80;;;;;;;;;;5039569;28;20057;-62
2022/05/14 04:33:16;;;;;;;17.25;6.78;;;;;;;;;;5036210;28;20055;-62
2022/05/14 04:35:42;;;;;;;18.98;7.43;;;;;;;;;;5047857;28;20037;-64
2022/05/14 04:38:08;;;;;;;14.52;7.22;;;;;;;;;;5040911;28;20133;-61
2022/05/14 04:40:35;;;;;;;17.25;7.15;;;;;;;;;;5040463;28;20124;-62
2022/05/14 04:43:04;;;;;;;16.50;7.75;;;;;;;;;;5047227;28;20040;-60
2022/05/14 04:45:32;;;;;;;21.65;8.38;;;;;;;;;;5047008;28;20154;-63
2022/05/14 04:47:58;;;;;;;24.73;8.15;;;;;;;;;;5052956;28;20117;-62
2022/05/14 04:50:24;;;;;;;16.10;7.43;;;;;;;;;;5042792;28;20167;-61
2022/05/14 04:52:50;;;;;;;14.38;7.30;;;;;;;;;;5046705;28;20087;-60
2022/05/14 04:55:16;;;;;;;18.70;7.18;;;;;;;;;;5044507;28;20068;-60
2022/05/14 04:57:43;;;;;;;15.27;8.00;;;;;;;;;;5048258;28;20069;-61
2022/05/14 05:00:13;;;;;;;15.63;7.50;;;;;;;;;;5043301;28;20049;-62
2022/05/14 05:05:25;;;;;;;16.38;7.00;;;;;;;;;;5036932;28;20395;-63
2022/05/14 05:07:51;;;;;;;18.20;7.53;;;;;;;;;;5036881;28;20179;-62
2022/05/14 05:10:17;;;;;;;17.27;7.68;;;;;;;;;;5046514;28;20072;-61
2022/05/14 05:12:43;;;;;;;21.15;8.02;;;;;;;;;;5048966;28;20043;-60
2022/05/14 05:15:10;;;;;;;21.58;7.50;;;;;;;;;;5047157;28;20472;-61
2022/05/14 05:17:36;;;;;;;13.50;7.28;;;;;;;;;;5042624;28;20143;-61
2022/05/14 05:20:03;;;;;;;16.65;7.63;;;;;;;;;;5049041;28;20036;-61
2022/05/14 05:22:29;;;;;;;17.92;7.15;;;;;;;;;;5046970;28;20048;-61
2022/05/14 05:24:56;;;;;;;15.38;8.02;;;;;;;;;;5048909;28;20412;-62
2022/05/14 05:27:23;;;;;;;19.60;8.05;;;;;;;;;;5048692;28;20056;-64
2022/05/14 05:29:49;;;;;;;17.63;7.70;;;;;;;;;;5052016;28;20056;-61
2022/05/14 05:32:15;;;;;;;16.58;7.25;;;;;;;;;;5043460;28;20147;-64
2022/05/14 05:34:42;;;;;;;15.15;7.43;;;;;;;;;;5044284;28;20069;-63
2022/05/14 05:37:07;;;;;;;12.90;7.78;;;;;;;;;;5043949;28;20049;-63
2022/05/14 05:39:33;;;;;;;17.20;7.15;;;;;;;;;;5050283;28;20045;-60
2022/05/14 05:42:00;;;;;;;17.75;7.20;;;;;;;;;;5038015;28;20125;-63
2022/05/14 05:44:26;;;;;;;15.10;7.45;;;;;;;;;;5042474;28;20146;-62
2022/05/14 05:46:53;;;;;;;19.77;7.93;;;;;;;;;;5044614;28;20053;-61
2022/05/14 05:49:19;;;;;;;19.00;8.00;;;;;;;;;;5039289;28;20419;-61
2022/05/14 05:51:45;;;;;;;18.88;7.57;;;;;;;;;;5040491;28;20045;-62
2022/05/14 05:56:59;;;;;;;25.52;7.90;;;;;;;;;;5042933;28;20056;-62
2022/05/14 05:59:28;;;;;;;23.50;7.82;;;;;;;;;;5038330;28;20037;-62
2022/05/14 06:01:54;;;;;;;27.50;10.25;;;;;;;;;;5041820;28;20045;-61
2022/05/14 06:04:21;;;;;;;17.77;8.40;;;;;;;;;;5039523;28;20759;-63
2022/05/14 06:06:47;;;;;;;18.35;8.15;;;;;;;;;;5035725;28;20499;-64
2022/05/14 06:09:16;;;;;;;18.90;8.13;;;;;;;;;;5042746;28;20489;-62
2022/05/14 06:11:42;;;;;;;16.73;6.03;;;;;;;;;;5049833;28;20068;-62
2022/05/14 06:14:09;;;;;;;18.83;6.25;;;;;;;;;;5043316;28;20064;-64
2022/05/14 06:16:35;;;;;;;17.65;5.97;;;;;;;;;;5047992;28;20071;-64
2022/05/14 06:19:01;;;;;;;11.88;6.00;;;;;;;;;;5050171;28;20063;-63
2022/05/14 06:21:27;;;;;;;14.40;5.72;;;;;;;;;;5046328;28;20099;-66
2022/05/14 06:23:54;;;;;;;15.15;5.45;;;;;;;;;;5043756;28;20041;-62
2022/05/14 06:26:20;;;;;;;11.30;5.50;;;;;;;;;;5043776;28;20384;-62
2022/05/14 06:28:46;;;;;;;13.13;5.53;;;;;;;;;;5038748;28;20104;-63
2022/05/14 06:31:12;;;;;;;19.30;5.72;;;;;;;;;;5042801;28;20159;-62
2022/05/14 06:33:39;;;;;;;12.95;5.85;;;;;;;;;;5040776;28;20405;-65
2022/05/14 06:36:04;;;;;;;12.55;5.90;;;;;;;;;;5044957;28;20073;-63
2022/05/14 06:38:30;;;;;;;13.15;5.47;;;;;;;;;;5047839;28;20072;-64
2022/05/14 06:41:04;;;;;;;16.08;5.75;;;;;;;;;;5047089;28;20037;-63
2022/05/14 06:43:29;;;;;;;11.23;5.80;;;;;;;;;;5039563;28;20187;-63
2022/05/14 06:45:55;;;;;;;10.52;5.80;;;;;;;;;;5037111;28;20133;-60
2022/05/14 06:48:22;;;;;;;12.30;5.93;;;;;;;;;;5046063;28;20090;-61
2022/05/14 06:50:49;;;;;;;11.82;6.20;;;;;;;;;;5047071;28;20383;-63
2022/05/14 06:53:17;;;;;;;15.20;6.07;;;;;;;;;;5046090;28;20407;-65
2022/05/14 06:55:46;;;;;;;13.07;5.35;;;;;;;;;;5048210;28;20056;-63
2022/05/14 06:58:16;;;;;;;10.55;5.22;;;;;;;;;;5041088;28;20033;-63
2022/05/14 07:00:43;;;;;;;11.50;4.93;;;;;;;;;;5041833;28;20503;-62
2022/05/14 07:08:38;;;;;;;9.45;5.50;;;;;;;;;;5042376;28;20114;-61
2022/05/14 07:11:04;;;;;;;11.07;5.90;;;;;;;;;;5035894;28;20451;-63
2022/05/14 07:13:30;;;;;;;11.82;5.18;;;;;;;;;;5045003;28;20045;-62
2022/05/14 07:15:56;;;;;;;13.57;5.00;;;;;;;;;;5037002;28;20053;-62
2022/05/14 07:18:21;;;;;;;12.60;4.80;;;;;;;;;;5049688;28;20060;-65
2022/05/14 07:20:47;;;;;;;11.43;4.90;;;;;;;;;;5040589;28;20045;-69
2022/05/14 07:23:14;;;;;;;12.55;5.18;;;;;;;;;;5036241;28;20060;-64
2022/05/14 07:25:39;;;;;;;8.35;4.80;;;;;;;;;;5032607;28;20573;-63
2022/05/14 07:28:08;;;;;;;10.50;5.10;;;;;;;;;;5027086;28;20724;-64
2022/05/14 07:30:35;;;;;;;14.70;5.05;;;;;;;;;;5026526;28;20777;-65
2022/05/14 07:33:01;;;;;;;14.07;5.50;;;;;;;;;;5033161;28;20041;-65
2022/05/14 07:35:28;;;;;;;10.80;4.72;;;;;;;;;;5031616;28;20503;-65
2022/05/14 07:37:56;;;;;;;9.35;4.88;;;;;;;;;;5035046;28;20142;-66
2022/05/14 07:40:26;;;;;;;11.57;5.07;;;;;;;;;;5024326;28;20045;-64
2022/05/14 07:43:16;;;;;;;12.43;5.28;;;;;;;;;;5036023;28;20045;-63
2022/05/14 07:45:44;;;;;;;12.40;4.70;;;;;;;;;;5036545;28;20785;-63
2022/05/14 07:48:17;;;;;;;9.95;4.95;;;;;;;;;;5034271;28;20089;-63
2022/05/14 07:50:44;;;;;;;14.40;5.15;;;;;;;;;;5039725;28;20107;-66
2022/05/14 07:53:10;;;;;;;15.20;4.95;;;;;;;;;;5035533;28;20054;-64
2022/05/14 07:55:36;;;;;;;12.82;5.25;;;;;;;;;;5032638;28;20041;-67
2022/05/14 07:58:04;;;;;;;15.60;5.57;;;;;;;;;;5032444;28;20443;-65
2022/05/14 08:00:31;;;;;;;13.15;5.30;;;;;;;;;;5031918;28;20139;-64
2022/05/14 08:02:57;;;;;;;11.00;5.47;;;;;;;;;;5041500;28;20049;-64
2022/05/14 08:05:23;;;;;;;12.60;5.43;;;;;;;;;;5040640;28;20051;-63
2022/05/14 08:07:49;;;;;;;12.25;5.60;;;;;;;;;;5036892;28;20456;-63
2022/05/14 08:10:16;;;;;;;11.68;5.10;;;;;;;;;;5046007;28;20049;-66
2022/05/14 08:12:47;;;;;;;11.43;5.13;;;;;;;;;;5044481;28;20056;-66
2022/05/14 08:15:15;;;;;;;15.98;5.68;;;;;;;;;;5036021;28;20048;-65
2022/05/14 08:17:41;;;;;;;15.65;5.68;;;;;;;;;;5038868;28;20127;-64
2022/05/14 08:20:08;;;;;;;18.02;5.35;;;;;;;;;;5045786;28;20056;-66
2022/05/14 08:25:19;;;;;;;10.13;5.07;;;;;;;;;;5035628;28;20045;-66
2022/05/14 08:27:45;;;;;;;14.95;5.82;;;;;;;;;;5041367;28;20447;-67
2022/05/14 08:30:12;;;;;;;10.63;5.25;;;;;;;;;;5044877;28;20110;-66
2022/05/14 08:32:38;;;;;;;15.05;5.47;;;;;;;;;;5041110;28;20065;-66
2022/05/14 08:35:04;;;;;;;14.10;5.28;;;;;;;;;;5043639;28;20041;-63
2022/05/14 08:37:30;;;;;;;12.13;5.20;;;;;;;;;;5049432;28;20037;-65
2022/05/14 08:39:56;;;;;;;13.68;5.10;;;;;;;;;;5048426;28;20052;-67
2022/05/14 08:42:23;;;;;;;17.38;5.30;;;;;;;;;;5045498;28;20408;-67
2022/05/14 08:44:49;;;;;;;16.27;6.25;;;;;;;;;;5050201;28;20396;-66
2022/05/14 08:47:28;;;;;;;14.60;5.63;;;;;;;;;;5050692;28;20063;-64
2022/05/14 08:49:56;;;;;;;14.55;5.82;;;;;;;;;;5053012;28;20083;-68
2022/05/14 08:52:25;;;;;;;12.70;6.22;;;;;;;;;;5051479;28;20113;-64
2022/05/14 08:54:59;;;;;;;15.80;6.07;;;;;;;;;;5041548;28;20061;-64
2022/05/14 08:57:59;;;;;;;16.10;6.72;;;;;;;;;;5047721;28;20045;-65
2022/05/14 09:00:25;;;;;;;14.85;6.65;;;;;;;;;;5044675;28;20037;-65
2022/05/14 09:02:54;;;;;;;12.23;5.95;;;;;;;;;;5052058;28;20049;-67
2022/05/14 09:05:24;;;;;;;14.43;6.18;;;;;;;;;;5051722;28;20412;-66
2022/05/14 09:07:50;;;;;;;15.80;7.70;;;;;;;;;;5035313;28;20156;-66
2022/05/14 09:10:30;;;;;;;14.82;7.72;;;;;;;;;;5037992;28;20115;-66
2022/05/14 09:13:12;;;;;;;21.08;8.27;;;;;;;;;;5040542;28;20127;-63
2022/05/14 09:15:51;;;;;;;20.77;9.82;;;;;;;;;;5043423;28;20517;-64
2022/05/14 09:18:27;;;;;;;22.92;10.55;;;;;;;;;;5043271;28;20044;-65
2022/05/14 09:21:00;;;;;;;39.72;15.93;;;;;;;;;;5045682;28;20052;-63
2022/05/14 09:23:50;;;;;;;29.85;11.43;;;;;;;;;;5039278;28;20049;-64
2022/05/14 09:26:38;;;;;;;35.05;13.63;;;;;;;;;;5045997;28;20048;-64
2022/05/14 09:29:26;;;;;;;69.65;25.55;;;;;;;;;;5039256;28;20049;-64
2022/05/14 09:31:55;;;;;;;23.77;11.85;;;;;;;;;;5041222;28;20060;-64
2022/05/14 09:34:22;;;;;;;21.83;10.50;;;;;;;;;;5044657;28;20512;-64
2022/05/14 09:36:50;;;;;;;15.32;9.63;;;;;;;;;;5040144;28;20472;-64
2022/05/14 09:39:19;;;;;;;25.13;9.60;;;;;;;;;;5049848;28;20052;-65
2022/05/14 09:42:00;;;;;;;15.27;8.77;;;;;;;;;;5048346;28;20171;-65
2022/05/14 09:44:30;;;;;;;19.25;9.55;;;;;;;;;;5049961;28;20045;-67
2022/05/14 09:47:11;;;;;;;22.90;9.75;;;;;;;;;;5041824;28;20060;-64
2022/05/14 09:49:41;;;;;;;22.52;9.30;;;;;;;;;;5042813;28;20045;-63
2022/05/14 09:52:10;;;;;;;20.90;8.68;;;;;;;;;;5046319;28;20053;-63
2022/05/14 09:54:50;;;;;;;16.10;8.32;;;;;;;;;;5035332;28;20048;-65
2022/05/14 09:57:52;;;;;;;17.00;8.05;;;;;;;;;;5050994;28;20493;-65
2022/05/14 10:00:23;;;;;;;17.50;6.97;;;;;;;;;;5042524;28;21132;-64
2022/05/14 10:02:55;;;;;;;17.08;6.45;;;;;;;;;;5048852;28;20064;-62
2022/05/14 10:05:29;;;;;;;15.40;6.25;;;;;;;;;;5043608;28;20042;-64
2022/05/14 10:08:33;;;;;;;17.17;5.63;;;;;;;;;;5052884;28;20047;-63
2022/05/14 10:11:10;;;;;;;14.82;5.65;;;;;;;;;;5043461;28;20072;-62
2022/05/14 10:13:49;;;;;;;19.02;6.72;;;;;;;;;;5048158;28;20504;-65
2022/05/14 10:16:56;;;;;;;11.43;6.13;;;;;;;;;;5036184;28;20538;-62
2022/05/14 10:19:44;;;;;;;23.92;6.32;;;;;;;;;;5031249;28;20049;-63
2022/05/14 10:22:12;;;;;;;17.05;5.88;;;;;;;;;;5034333;28;20077;-68
2022/05/14 10:27:28;;;;;;;12.57;5.60;;;;;;;;;;5049197;28;20045;-67
2022/05/14 10:30:05;;;;;;;12.00;5.75;;;;;;;;;;5034002;28;20041;-66
2022/05/14 10:32:32;;;;;;;18.27;6.50;;;;;;;;;;5039655;28;20053;-70
2022/05/14 10:35:18;;;;;;;16.55;5.97;;;;;;;;;;5042820;28;20491;-67
2022/05/14 10:37:53;;;;;;;13.57;5.10;;;;;;;;;;5043370;28;20042;-66
2022/05/14 10:40:21;;;;;;;13.25;5.45;;;;;;;;;;5042985;28;20073;-67
2022/05/14 10:42:53;;;;;;;14.45;5.00;;;;;;;;;;5041138;28;20053;-65
2022/05/14 10:45:30;;;;;;;9.90;4.40;;;;;;;;;;5031878;28;20041;-67
2022/05/14 10:48:17;;;;;;;14.05;4.90;;;;;;;;;;5040825;28;20386;-66
2022/05/14 10:50:43;;;;;;;10.95;5.30;;;;;;;;;;5042712;28;20060;-68
2022/05/14 10:53:11;;;;;;;12.90;5.43;;;;;;;;;;5031150;28;20068;-67
2022/05/14 10:56:04;;;;;;;14.38;4.85;;;;;;;;;;5032606;28;20097;-67
2022/05/14 10:58:43;;;;;;;14.05;4.30;;;;;;;;;;5038161;28;20117;-65
2022/05/14 11:01:24;;;;;;;11.48;4.40;;;;;;;;;;5039194;28;20036;-66
2022/05/14 11:03:59;;;;;;;11.13;3.60;;;;;;;;;;5042319;28;20041;-64
2022/05/14 11:06:31;;;;;;;9.55;3.78;;;;;;;;;;5044120;28;20049;-65
2022/05/14 11:08:57;;;;;;;11.88;4.18;;;;;;;;;;5039201;28;20049;-64
2022/05/14 11:11:29;;;;;;;13.57;3.80;;;;;;;;;;5045712;28;20508;-64
2022/05/14 11:14:01;;;;;;;12.85;4.78;;;;;;;;;;5045734;28;20516;-66
2022/05/14 11:16:45;;;;;;;11.30;4.70;;;;;;;;;;5044964;28;20047;-66
2022/05/14 11:19:28;;;;;;;17.02;5.13;;;;;;;;;;5045233;28;20056;-67
2022/05/14 11:21:55;;;;;;;9.40;4.00;;;;;;;;;;5036334;28;20115;-65
2022/05/14 11:24:35;;;;;;;15.13;4.63;;;;;;;;;;5045786;28;20098;-67
2022/05/14 11:27:02;;;;;;;16.55;4.30;;;;;;;;;;5034386;28;20634;-66
2022/05/14 11:29:33;;;;;;;10.88;4.00;;;;;;;;;;5039694;28;20511;-66
2022/05/14 11:32:11;;;;;;;12.60;4.07;;;;;;;;;;5040580;28;20053;-65
2022/05/14 11:34:49;;;;;;;8.95;3.40;;;;;;;;;;5044156;28;20118;-65
2022/05/14 11:37:27;;;;;;;9.02;3.50;;;;;;;;;;5033922;28;20045;-64
2022/05/14 11:40:24;;;;;;;17.85;4.03;;;;;;;;;;5034404;28;20045;-67
2022/05/14 11:42:53;;;;;;;14.98;3.75;;;;;;;;;;5038027;28;20053;-68
2022/05/14 11:45:24;;;;;;;12.88;4.25;;;;;;;;;;5036517;28;20037;-66
2022/05/14 11:47:49;;;;;;;17.10;4.90;;;;;;;;;;5044416;28;20044;-65
2022/05/14 11:50:18;;;;;;;16.25;5.43;;;;;;;;;;5039811;28;20045;-64
2022/05/14 11:53:10;;;;;;;18.17;4.70;;;;;;;;;;5041839;28;20504;-65
2022/05/14 11:55:52;;;;;;;13.57;4.38;;;;;;;;;;5047900;28;20044;-63
2022/05/14 11:58:31;;;;;;;14.55;4.82;;;;;;;;;;5049929;28;20049;-62
2022/05/14 12:00:59;;;;;;;15.80;4.80;;;;;;;;;;5043569;28;20037;-65
2022/05/14 12:03:41;;;;;;;10.23;3.70;;;;;;;;;;5042984;28;20359;-65
2022/05/14 12:06:39;;;;;;;13.00;3.80;;;;;;;;;;5037641;28;20095;-65
2022/05/14 12:09:11;;;;;;;12.20;3.97;;;;;;;;;;5030259;28;20049;-65
2022/05/14 12:12:10;;;;;;;12.90;3.78;;;;;;;;;;5049964;28;20051;-64
2022/05/14 12:14:36;;;;;;;13.35;4.22;;;;;;;;;;5044888;28;20041;-67
2022/05/14 12:17:06;;;;;;;12.13;3.70;;;;;;;;;;5035970;28;20045;-65
2022/05/14 12:19:36;;;;;;;14.07;5.20;;;;;;;;;;5049638;28;20424;-64
2022/05/14 12:22:20;;;;;;;10.18;4.10;;;;;;;;;;5042745;28;20057;-64
2022/05/14 12:25:07;;;;;;;14.10;4.60;;;;;;;;;;5031606;28;20057;-65
2022/05/14 12:27:44;;;;;;;15.35;4.97;;;;;;;;;;5039116;28;20048;-69
2022/05/14 12:30:13;;;;;;;13.50;5.05;;;;;;;;;;5051764;28;20103;-65
2022/05/14 12:35:31;;;;;;;14.27;4.13;;;;;;;;;;5049279;28;20045;-64
2022/05/14 12:38:00;;;;;;;10.00;4.20;;;;;;;;;;5040213;28;20110;-64
2022/05/14 12:40:36;;;;;;;19.88;5.38;;;;;;;;;;5051291;28;20047;-67
2022/05/14 12:43:05;;;;;;;9.90;4.68;;;;;;;;;;5050279;28;20106;-66
2022/05/14 12:45:40;;;;;;;14.70;4.97;;;;;;;;;;5052644;28;20412;-65
2022/05/14 12:48:08;;;;;;;11.15;4.13;;;;;;;;;;5044241;28;20463;-65
2022/05/14 12:50:34;;;;;;;10.98;4.00;;;;;;;;;;5049641;28;20075;-66
2022/05/14 12:53:11;;;;;;;17.13;4.50;;;;;;;;;;5031845;28;20049;-65
2022/05/14 12:55:42;;;;;;;12.45;4.13;;;;;;;;;;5032756;28;20050;-65
2022/05/14 12:58:08;;;;;;;10.15;4.22;;;;;;;;;;5030589;28;20060;-66
2022/05/14 13:00:37;;;;;;;12.15;4.43;;;;;;;;;;5030836;28;20580;-66
2022/05/14 13:03:20;;;;;;;9.75;4.20;;;;;;;;;;5041599;28;20056;-66
2022/05/14 13:06:02;;;;;;;14.90;4.22;;;;;;;;;;5050619;28;20060;-65
2022/05/14 13:08:29;;;;;;;12.13;3.95;;;;;;;;;;5036322;28;20068;-66
2022/05/14 13:11:04;;;;;;;8.50;4.07;;;;;;;;;;5050504;28;20069;-66
2022/05/14 13:13:43;;;;;;;9.43;4.00;;;;;;;;;;5051148;28;20120;-68
2022/05/14 13:16:11;;;;;;;10.48;3.97;;;;;;;;;;5051252;28;20774;-68
2022/05/14 13:19:00;;;;;;;11.05;4.35;;;;;;;;;;5049492;28;20045;-66
2022/05/14 13:21:32;;;;;;;13.02;3.78;;;;;;;;;;5050303;28;20132;-68
2022/05/14 13:24:04;;;;;;;9.00;3.42;;;;;;;;;;5047062;28;20052;-66
2022/05/14 13:26:29;;;;;;;11.70;4.20;;;;;;;;;;5038741;28;20049;-66
2022/05/14 13:29:24;;;;;;;13.77;3.30;;;;;;;;;;5038630;28;20137;-67
2022/05/14 13:31:52;;;;;;;14.75;4.13;;;;;;;;;;5029631;28;20045;-66
2022/05/14 13:37:21;;;;;;;11.02;3.00;;;;;;;;;;5048697;28;20388;-67
2022/05/14 13:40:21;;;;;;;12.32;3.08;;;;;;;;;;5050325;28;20142;-67
2022/05/14 13:42:54;;;;;;;10.48;2.80;;;;;;;;;;5036030;28;20049;-68
2022/05/14 13:45:24;;;;;;;8.70;3.13;;;;;;;;;;5045183;28;20092;-65
2022/05/14 13:47:56;;;;;;;6.03;3.30;;;;;;;;;;5036979;28;20060;-66
2022/05/14 13:50:26;;;;;;;9.65;3.42;;;;;;;;;;5049768;28;20047;-65
2022/05/14 13:52:54;;;;;;;11.40;3.38;;;;;;;;;;5049363;28;20179;-66
2022/05/14 13:55:57;;;;;;;8.38;2.92;;;;;;;;;;5049933;28;20048;-68
2022/05/14 13:58:24;;;;;;;8.38;3.20;;;;;;;;;;5049242;28;20060;-68
2022/05/14 14:01:07;;;;;;;12.15;3.95;;;;;;;;;;5045778;28;20045;-65
2022/05/14 14:03:46;;;;;;;11.57;3.67;;;;;;;;;;5043299;28;20053;-68
2022/05/14 14:06:12;;;;;;;8.50;3.13;;;;;;;;;;5048332;28;20041;-66
2022/05/14 14:08:39;;;;;;;11.65;3.20;;;;;;;;;;5049130;28;20069;-66
2022/05/14 14:11:05;;;;;;;6.85;2.92;;;;;;;;;;5050040;28;20140;-67
2022/05/14 14:13:30;;;;;;;9.85;3.60;;;;;;;;;;5051142;28;20439;-66
2022/05/14 14:15:56;;;;;;;9.35;3.15;;;;;;;;;;5048093;28;20441;-66
2022/05/14 14:18:22;;;;;;;9.93;3.13;;;;;;;;;;5044889;28;20395;-65
2022/05/14 14:20:52;;;;;;;9.00;3.22;;;;;;;;;;5047162;28;20492;-68
2022/05/14 14:23:22;;;;;;;11.40;2.72;;;;;;;;;;5048733;28;20049;-66
2022/05/14 14:25:48;;;;;;;9.02;2.80;;;;;;;;;;5049083;28;20139;-66
2022/05/14 14:28:15;;;;;;;11.07;2.92;;;;;;;;;;5047421;28;20082;-66
2022/05/14 14:30:42;;;;;;;9.48;3.28;;;;;;;;;;5039063;28;20184;-66
2022/05/14 14:33:08;;;;;;;11.52;3.40;;;;;;;;;;5035766;28;20052;-67
2022/05/14 14:35:35;;;;;;;8.23;2.72;;;;;;;;;;5034829;28;20045;-67
2022/05/14 14:38:01;;;;;;;10.25;2.95;;;;;;;;;;5045854;28;20053;-70
2022/05/14 14:40:28;;;;;;;11.10;3.15;;;;;;;;;;5050240;28;20087;-67
2022/05/14 14:42:53;;;;;;;11.88;3.30;;;;;;;;;;5049101;28;20041;-68
2022/05/14 14:45:20;;;;;;;13.05;3.33;;;;;;;;;;5035084;28;20263;-67
2022/05/14 14:47:48;;;;;;;12.10;3.20;;;;;;;;;;5028904;28;20065;-67
2022/05/14 14:50:16;;;;;;;7.88;2.97;;;;;;;;;;5037188;28;20049;-68
2022/05/14 14:52:43;;;;;;;9.38;3.00;;;;;;;;;;5047622;28;20056;-67
2022/05/14 14:55:09;;;;;;;12.43;3.65;;;;;;;;;;5029501;28;20601;-66
2022/05/14 14:57:35;;;;;;;9.40;2.90;;;;;;;;;;5030117;28;20053;-67
2022/05/14 15:00:02;;;;;;;9.10;3.03;;;;;;;;;;5047760;28;20397;-66
2022/05/14 15:02:33;;;;;;;10.68;3.40;;;;;;;;;;5037733;28;20052;-66
2022/05/14 15:05:07;;;;;;;10.25;2.80;;;;;;;;;;5034757;28;20836;-68
2022/05/14 15:07:34;;;;;;;12.18;3.13;;;;;;;;;;5047087;28;20354;-65
2022/05/14 15:10:01;;;;;;;10.15;3.10;;;;;;;;;;5048931;28;20130;-65
2022/05/14 15:12:29;;;;;;;6.75;2.72;;;;;;;;;;5037703;28;20056;-64
2022/05/14 15:14:55;;;;;;;9.63;3.00;;;;;;;;;;5045623;28;20044;-66
2022/05/14 15:17:21;;;;;;;7.25;2.95;;;;;;;;;;5035896;28;20457;-66